Time;durP1;ratioP1;P1;durP2;ratioP2;P2;SDS_P1;SDS_P2;PMS_P1;PMS_P2;Temp;Humidity;BMP_temperature;BMP_pressure;BME280_temperature;BME280_humidity;BME280_pressure;Samples;Min_cycle;Max_cycle;Signal;HPM_P1;HPM_P2
2022/04/16 00:01:09;;;;;;;10.65;6.95;;;6.30;95.60;;;;;;5016788;28;20437;-67
2022/04/16 00:03:35;;;;;;;10.88;5.93;;;6.30;95.50;;;;;;5023625;28;20369;-67
2022/04/16 00:06:02;;;;;;;13.45;6.47;;;6.20;95.40;;;;;;5034788;28;20026;-67
2022/04/16 00:08:29;;;;;;;9.55;6.05;;;6.10;95.40;;;;;;5029333;28;20037;-67
2022/04/16 00:10:56;;;;;;;9.98;6.93;;;6.00;95.00;;;;;;5019823;28;20033;-67
2022/04/16 00:13:22;;;;;;;10.13;5.93;;;6.10;95.00;;;;;;5018550;28;20030;-67
2022/04/16 00:15:49;;;;;;;11.70;6.25;;;6.10;95.20;;;;;;5030121;28;20133;-67
2022/04/16 00:18:16;;;;;;;10.05;6.05;;;6.10;95.40;;;;;;5035500;28;20021;-67
2022/04/16 00:20:43;;;;;;;13.35;6.63;;;6.00;95.20;;;;;;5027675;28;20029;-67
2022/04/16 00:23:10;;;;;;;13.00;6.32;;;5.90;95.20;;;;;;5027279;28;20045;-67
2022/04/16 00:25:36;;;;;;;9.50;5.90;;;5.70;95.10;;;;;;5018412;28;20034;-67
2022/04/16 00:28:03;;;;;;;9.30;6.05;;;5.70;94.80;;;;;;5031352;28;20388;-67
2022/04/16 00:30:35;;;;;;;9.35;6.05;;;5.60;94.80;;;;;;5018453;28;20116;-67
2022/04/16 00:33:02;;;;;;;8.93;5.93;;;5.70;94.80;;;;;;5035119;28;20415;-67
2022/04/16 00:35:29;;;;;;;14.10;7.22;;;5.70;94.80;;;;;;5022048;28;20045;-67
2022/04/16 00:37:55;;;;;;;12.10;6.57;;;5.60;94.50;;;;;;5027579;28;20049;-67
2022/04/16 00:40:21;;;;;;;10.93;6.90;;;5.60;94.40;;;;;;5029174;28;20041;-67
2022/04/16 00:42:47;;;;;;;9.52;6.82;;;5.60;94.20;;;;;;5020184;28;20124;-67
2022/04/16 00:45:13;;;;;;;10.38;6.85;;;5.60;94.50;;;;;;5029192;28;20045;-67
2022/04/16 00:47:40;;;;;;;8.05;5.97;;;5.50;94.50;;;;;;5035472;28;20036;-67
2022/04/16 00:50:09;;;;;;;9.73;6.55;;;5.40;94.30;;;;;;5027456;28;20025;-67
2022/04/16 00:52:36;;;;;;;10.90;6.88;;;5.40;94.10;;;;;;5030636;28;20143;-67
2022/04/16 00:55:04;;;;;;;11.30;6.65;;;5.40;93.80;;;;;;5032961;28;20025;-67
2022/04/16 00:57:31;;;;;;;12.25;7.10;;;5.30;93.70;;;;;;5028478;28;20069;-67
2022/04/16 00:59:57;;;;;;;10.25;6.93;;;5.40;93.30;;;;;;5030309;28;20484;-67
2022/04/16 01:02:23;;;;;;;9.82;7.03;;;5.50;93.50;;;;;;5028784;28;20057;-67
2022/04/16 01:04:52;;;;;;;11.35;7.55;;;5.50;93.70;;;;;;5018287;28;20350;-68
2022/04/16 01:07:23;;;;;;;13.40;8.15;;;5.60;93.90;;;;;;5017800;28;20060;-67
2022/04/16 01:09:49;;;;;;;9.15;6.82;;;5.50;93.90;;;;;;5025976;28;20043;-67
2022/04/16 01:12:15;;;;;;;9.57;7.10;;;5.60;93.80;;;;;;5023448;28;20101;-67
2022/04/16 01:14:42;;;;;;;11.18;7.30;;;5.60;93.90;;;;;;5032945;28;20077;-67
2022/04/16 01:17:09;;;;;;;13.13;7.93;;;5.50;93.90;;;;;;5031374;28;20025;-67
2022/04/16 01:19:38;;;;;;;9.65;6.57;;;5.40;94.20;;;;;;5030587;28;20014;-67
2022/04/16 01:22:07;;;;;;;10.80;6.30;;;5.30;94.30;;;;;;5025115;28;20029;-67
2022/04/16 01:24:37;;;;;;;11.38;7.05;;;5.20;93.80;;;;;;5030867;28;20013;-67
2022/04/16 01:27:04;;;;;;;12.88;7.45;;;5.10;94.20;;;;;;5035271;28;20029;-67
2022/04/16 01:29:31;;;;;;;12.45;7.35;;;5.00;93.70;;;;;;5031668;28;20049;-67
2022/04/16 01:31:57;;;;;;;10.02;7.55;;;5.00;93.20;;;;;;5025632;28;20021;-67
2022/04/16 01:34:25;;;;;;;13.50;7.78;;;4.80;93.20;;;;;;5016298;28;20030;-67
2022/04/16 01:36:52;;;;;;;12.98;7.47;;;4.70;93.30;;;;;;5032823;28;20327;-67
2022/04/16 01:39:19;;;;;;;11.00;7.93;;;4.50;92.90;;;;;;5033975;28;20087;-67
2022/04/16 01:41:46;;;;;;;11.38;7.80;;;4.40;92.60;;;;;;5022344;28;20030;-66
2022/04/16 01:44:12;;;;;;;10.68;7.40;;;4.40;92.50;;;;;;5024610;28;20029;-67
2022/04/16 01:46:38;;;;;;;13.02;7.90;;;4.40;92.00;;;;;;5030203;28;20411;-67
2022/04/16 01:49:09;;;;;;;10.70;6.97;;;4.40;91.70;;;;;;5017087;28;20022;-66
2022/04/16 01:51:35;;;;;;;12.32;7.03;;;4.50;91.30;;;;;;5018294;28;20041;-66
2022/04/16 01:54:01;;;;;;;11.52;7.50;;;4.50;91.20;;;;;;5016759;28;20414;-66
2022/04/16 01:56:27;;;;;;;11.45;6.93;;;4.50;91.90;;;;;;5017394;28;20108;-66
2022/04/16 01:58:53;;;;;;;11.35;7.75;;;4.50;91.50;;;;;;5018614;28;20045;-66
2022/04/16 02:01:19;;;;;;;13.02;7.55;;;4.40;92.00;;;;;;5018899;28;20028;-67
2022/04/16 02:03:45;;;;;;;12.10;7.75;;;4.30;91.80;;;;;;5016896;28;20033;-68
2022/04/16 02:06:11;;;;;;;13.10;7.90;;;4.30;91.50;;;;;;5019672;28;20423;-67
2022/04/16 02:08:37;;;;;;;12.10;7.40;;;4.30;92.10;;;;;;5020072;28;20120;-67
2022/04/16 02:11:03;;;;;;;14.60;8.35;;;4.40;91.70;;;;;;5024460;28;20505;-67
2022/04/16 02:13:29;;;;;;;10.13;7.20;;;4.40;92.00;;;;;;5030675;28;20303;-67
2022/04/16 02:15:56;;;;;;;11.50;7.65;;;4.30;92.40;;;;;;5025170;28;20065;-67
2022/04/16 02:18:23;;;;;;;13.80;7.55;;;4.20;92.40;;;;;;5025769;28;20426;-67
2022/04/16 02:20:50;;;;;;;13.80;8.32;;;4.20;92.30;;;;;;5027447;28;20040;-66
2022/04/16 02:23:16;;;;;;;11.10;7.60;;;4.10;92.20;;;;;;5029705;28;20452;-67
2022/04/16 02:25:43;;;;;;;10.75;7.50;;;4.20;91.60;;;;;;5022112;28;20364;-67
2022/04/16 02:28:10;;;;;;;10.88;7.72;;;4.10;92.50;;;;;;5034981;28;20068;-67
2022/04/16 02:30:37;;;;;;;11.77;7.50;;;4.10;92.00;;;;;;5027812;28;20093;-67
2022/04/16 02:33:03;;;;;;;11.68;7.95;;;4.20;91.50;;;;;;5028078;28;20159;-67
2022/04/16 02:35:32;;;;;;;10.95;7.65;;;4.20;92.10;;;;;;5020914;28;20062;-67
2022/04/16 02:37:58;;;;;;;11.52;8.10;;;4.10;92.30;;;;;;5025488;28;20026;-66
2022/04/16 02:40:24;;;;;;;11.57;7.53;;;4.10;91.90;;;;;;5026226;28;20029;-66
2022/04/16 02:42:50;;;;;;;11.55;7.30;;;4.20;91.60;;;;;;5022646;28;20315;-66
2022/04/16 02:48:02;;;;;;;11.25;6.93;;;4.50;91.60;;;;;;5034140;28;20080;-67
2022/04/16 02:50:29;;;;;;;10.85;7.32;;;4.50;92.30;;;;;;5021127;28;20033;-67
2022/04/16 02:52:55;;;;;;;14.23;7.93;;;4.50;92.80;;;;;;5028814;28;20030;-66
2022/04/16 02:55:22;;;;;;;10.27;7.25;;;4.60;93.00;;;;;;5028139;28;20079;-67
2022/04/16 02:57:52;;;;;;;11.52;7.50;;;4.60;92.80;;;;;;5036426;28;20029;-67
2022/04/16 03:00:21;;;;;;;12.07;7.75;;;4.80;93.20;;;;;;5035804;28;20076;-67
2022/04/16 03:02:48;;;;;;;12.25;7.32;;;4.80;93.60;;;;;;5018723;28;20072;-67
2022/04/16 03:05:14;;;;;;;10.00;6.55;;;4.80;94.30;;;;;;5020777;28;20041;-66
2022/04/16 03:07:41;;;;;;;10.18;6.80;;;4.70;94.50;;;;;;5031528;28;20112;-67
2022/04/16 03:10:10;;;;;;;10.50;6.70;;;4.70;94.60;;;;;;5023911;28;20022;-67
2022/04/16 03:12:52;;;;;;;12.05;7.55;;;4.60;95.00;;;;;;5018852;28;20022;-67
2022/04/16 03:18:04;;;;;;;8.55;6.05;;;4.40;94.90;;;;;;5020795;28;20451;-67
2022/04/16 03:20:31;;;;;;;8.68;6.18;;;4.30;94.30;;;;;;5029294;28;20414;-67
2022/04/16 03:22:58;;;;;;;10.38;6.47;;;4.30;94.10;;;;;;5018420;28;20076;-67
2022/04/16 03:25:24;;;;;;;10.38;7.47;;;4.40;94.30;;;;;;5023957;28;20112;-66
2022/04/16 03:27:51;;;;;;;10.88;7.30;;;4.30;94.20;;;;;;5023761;28;20086;-66
2022/04/16 03:30:17;;;;;;;10.52;6.60;;;4.20;94.70;;;;;;5028967;28;20101;-66
2022/04/16 03:32:47;;;;;;;12.93;7.03;;;4.10;94.70;;;;;;5022636;28;20018;-66
2022/04/16 03:35:13;;;;;;;10.77;6.60;;;4.00;93.80;;;;;;5028494;28;20026;-67
2022/04/16 03:37:39;;;;;;;12.43;7.40;;;4.00;93.70;;;;;;5018615;28;20040;-67
2022/04/16 03:40:07;;;;;;;10.77;7.25;;;4.10;93.50;;;;;;5021625;28;20470;-67
2022/04/16 03:42:32;;;;;;;13.63;7.93;;;4.10;93.80;;;;;;5035366;28;20029;-67
2022/04/16 03:45:00;;;;;;;10.38;7.13;;;4.00;93.70;;;;;;5027971;28;20436;-66
2022/04/16 03:47:27;;;;;;;11.27;7.35;;;3.90;93.60;;;;;;5035338;28;20029;-67
2022/04/16 03:49:54;;;;;;;12.32;7.63;;;3.80;93.40;;;;;;5021947;28;20029;-67
2022/04/16 03:52:20;;;;;;;10.25;6.95;;;3.80;93.00;;;;;;5018829;28;20045;-67
2022/04/16 04:00:17;;;;;;;12.35;8.32;;;3.50;93.00;;;;;;5031098;28;20321;-67
2022/04/16 04:02:43;;;;;;;11.98;7.72;;;3.50;92.80;;;;;;5018526;28;20365;-67
2022/04/16 04:05:10;;;;;;;12.45;8.10;;;3.30;92.70;;;;;;5020674;28;20112;-67
2022/04/16 04:07:36;;;;;;;10.40;7.30;;;3.30;92.90;;;;;;5034793;28;20083;-67
2022/04/16 04:10:03;;;;;;;11.25;7.35;;;3.20;91.80;;;;;;5021575;28;20030;-67
2022/04/16 04:12:29;;;;;;;12.63;8.13;;;3.40;91.00;;;;;;5023431;28;20032;-67
2022/04/16 04:14:55;;;;;;;12.55;8.02;;;3.40;92.20;;;;;;5028332;28;20333;-67
2022/04/16 04:17:21;;;;;;;12.02;7.40;;;3.20;92.50;;;;;;5024542;28;20060;-67
2022/04/16 04:19:48;;;;;;;12.43;8.05;;;3.10;91.70;;;;;;5028832;28;20029;-69
2022/04/16 04:22:15;;;;;;;10.10;7.05;;;3.10;91.70;;;;;;5030523;28;20025;-68
2022/04/16 04:24:42;;;;;;;14.80;8.77;;;2.90;92.10;;;;;;5037864;28;20033;-67
2022/04/16 04:27:08;;;;;;;12.07;7.85;;;2.90;91.60;;;;;;5023693;28;20057;-68
2022/04/16 04:29:36;;;;;;;10.93;7.57;;;2.80;91.40;;;;;;5026127;28;20052;-68
2022/04/16 04:32:02;;;;;;;13.52;8.48;;;2.80;90.90;;;;;;5030906;28;20152;-68
2022/04/16 04:34:29;;;;;;;13.55;8.60;;;2.80;90.60;;;;;;5031703;28;20045;-67
2022/04/16 04:36:55;;;;;;;14.52;9.07;;;2.90;89.80;;;;;;5027345;28;20061;-67
2022/04/16 04:39:24;;;;;;;13.93;8.73;;;2.90;89.70;;;;;;5023363;28;20599;-67
2022/04/16 04:41:50;;;;;;;12.20;8.25;;;3.00;89.80;;;;;;5021510;28;20450;-67
2022/04/16 04:44:16;;;;;;;12.07;8.00;;;3.00;89.30;;;;;;5029710;28;20121;-67
2022/04/16 04:46:42;;;;;;;13.50;9.10;;;3.00;89.70;;;;;;5021545;28;20029;-67
2022/04/16 04:49:13;;;;;;;13.88;8.38;;;3.10;88.60;;;;;;5017497;28;20032;-67
2022/04/16 04:51:39;;;;;;;11.70;7.82;;;3.10;89.40;;;;;;5029591;28;20029;-67
2022/04/16 04:54:07;;;;;;;12.75;8.48;;;3.10;90.10;;;;;;5031275;28;20498;-67
2022/04/16 04:56:33;;;;;;;12.35;8.55;;;3.00;89.90;;;;;;5031214;28;20426;-67
2022/04/16 04:59:00;;;;;;;11.57;7.47;;;3.00;89.60;;;;;;5022942;28;20060;-67
2022/04/16 05:01:26;;;;;;;12.55;8.05;;;3.00;89.20;;;;;;5024786;28;20026;-68
2022/04/16 05:03:52;;;;;;;17.92;9.68;;;3.10;89.20;;;;;;5028248;28;20171;-67
2022/04/16 05:06:19;;;;;;;14.30;9.75;;;3.20;89.00;;;;;;5019458;28;20465;-67
2022/04/16 05:08:44;;;;;;;12.45;8.63;;;3.40;88.90;;;;;;5029128;28;20027;-67
2022/04/16 05:11:11;;;;;;;12.77;8.18;;;3.50;89.00;;;;;;5020761;28;20041;-67
2022/04/16 05:13:37;;;;;;;12.05;7.90;;;3.60;89.20;;;;;;5017002;28;20026;-67
2022/04/16 05:16:05;;;;;;;11.52;7.40;;;3.70;89.60;;;;;;5023199;28;20022;-67
2022/04/16 05:18:31;;;;;;;12.55;8.07;;;3.80;88.80;;;;;;5018125;28;20034;-67
2022/04/16 05:20:57;;;;;;;12.57;7.40;;;4.10;89.20;;;;;;5018521;28;20053;-67
2022/04/16 05:23:24;;;;;;;13.43;8.45;;;4.30;88.80;;;;;;5027994;28;20456;-67
2022/04/16 05:25:51;;;;;;;11.35;6.95;;;4.60;89.30;;;;;;5031494;28;20022;-68
2022/04/16 05:28:18;;;;;;;13.25;8.10;;;4.80;89.70;;;;;;5017227;28;20029;-68
2022/04/16 05:30:48;;;;;;;10.40;7.40;;;5.00;90.80;;;;;;5026289;28;20033;-67
2022/04/16 05:36:00;;;;;;;13.77;8.60;;;5.40;92.90;;;;;;5027576;28;20342;-67
2022/04/16 05:38:26;;;;;;;10.85;6.82;;;5.60;93.70;;;;;;5026987;28;20112;-68
2022/04/16 05:40:53;;;;;;;11.05;6.78;;;5.70;95.00;;;;;;5027554;28;20473;-67
2022/04/16 05:43:19;;;;;;;11.27;6.30;;;5.80;96.30;;;;;;5027838;28;20080;-67
2022/04/16 05:45:45;;;;;;;9.57;6.63;;;5.80;97.90;;;;;;5025734;28;20033;-68
2022/04/16 05:48:11;;;;;;;10.60;6.50;;;6.00;96.70;;;;;;5019229;28;20072;-67
2022/04/16 05:50:39;;;;;;;10.63;6.55;;;6.10;98.00;;;;;;5015727;28;20097;-68
2022/04/16 05:53:07;;;;;;;8.93;5.97;;;6.10;98.00;;;;;;5020268;28;20026;-67
2022/04/16 05:55:36;;;;;;;9.52;5.85;;;6.20;98.00;;;;;;5020201;28;20101;-68
2022/04/16 05:58:02;;;;;;;9.50;6.20;;;6.40;98.00;;;;;;5030777;28;20037;-68
2022/04/16 06:00:28;;;;;;;10.75;6.20;;;6.60;98.00;;;;;;5024078;28;20044;-68
2022/04/16 06:02:59;;;;;;;8.63;5.55;;;6.80;98.00;;;;;;5019242;28;20092;-67
2022/04/16 06:05:25;;;;;;;7.93;5.38;;;6.90;98.00;;;;;;5029875;28;20040;-67
2022/04/16 06:07:51;;;;;;;8.85;5.30;;;7.10;98.00;;;;;;5026050;28;20037;-68
2022/04/16 06:10:17;;;;;;;9.07;5.60;;;7.20;98.00;;;;;;5024030;28;20026;-68
2022/04/16 06:12:46;;;;;;;9.73;6.57;;;7.30;98.00;;;;;;5028957;28;20022;-67
2022/04/16 06:15:12;;;;;;;10.35;6.72;;;7.40;98.00;;;;;;5019794;28;20070;-67
2022/04/16 06:17:38;;;;;;;8.60;5.93;;;7.40;97.40;;;;;;5027534;28;20069;-68
2022/04/16 06:20:07;;;;;;;8.65;6.18;;;7.50;97.30;;;;;;5018456;28;20105;-67
2022/04/16 06:22:33;;;;;;;8.75;6.40;;;7.70;97.30;;;;;;5028740;28;20361;-67
2022/04/16 06:24:59;;;;;;;27.17;24.15;;;8.00;96.70;;;;;;5021760;28;20040;-68
2022/04/16 06:27:25;;;;;;;9.63;6.72;;;8.30;95.10;;;;;;5033563;28;20022;-67
2022/04/16 06:29:51;;;;;;;8.95;6.40;;;8.40;94.50;;;;;;5033620;28;20395;-67
2022/04/16 06:32:16;;;;;;;9.80;6.93;;;8.40;94.60;;;;;;5016094;28;20049;-68
2022/04/16 06:34:42;;;;;;;10.73;7.82;;;8.30;94.50;;;;;;5016341;28;20384;-68
2022/04/16 06:37:08;;;;;;;9.35;7.68;;;8.20;94.70;;;;;;5020950;28;20034;-68
2022/04/16 06:39:34;;;;;;;11.27;7.38;;;8.10;94.60;;;;;;5026942;28;20444;-67
2022/04/16 06:42:00;;;;;;;10.02;6.40;;;8.00;95.10;;;;;;5020239;28;20458;-67
2022/04/16 06:44:26;;;;;;;28.02;25.13;;;8.00;95.00;;;;;;5024318;28;20030;-68
2022/04/16 06:46:54;;;;;;;9.63;6.95;;;8.00;94.80;;;;;;5026563;28;20342;-67
2022/04/16 06:49:24;;;;;;;12.98;9.95;;;7.90;95.20;;;;;;5018616;28;20040;-67
2022/04/16 06:51:50;;;;;;;13.23;11.55;;;7.90;96.10;;;;;;5021908;28;20046;-68
2022/04/16 06:54:16;;;;;;;44.75;40.00;;;8.00;95.60;;;;;;5028846;28;20032;-67
2022/04/16 06:56:42;;;;;;;55.28;49.55;;;8.10;95.20;;;;;;5026167;28;20029;-67
2022/04/16 06:59:11;;;;;;;30.10;26.83;;;8.20;95.70;;;;;;5036520;28;20109;-68
2022/04/16 07:01:40;;;;;;;14.27;12.57;;;8.40;95.70;;;;;;5032727;28;20087;-68
2022/04/16 07:04:05;;;;;;;12.93;10.30;;;8.70;95.00;;;;;;5035943;28;20361;-67
2022/04/16 07:06:31;;;;;;;12.07;9.50;;;9.00;94.20;;;;;;5030503;28;20030;-67
2022/04/16 07:08:58;;;;;;;11.25;9.25;;;9.30;93.60;;;;;;5036651;28;20035;-67
2022/04/16 07:11:24;;;;;;;9.40;7.00;;;9.70;92.10;;;;;;5034719;28;20488;-67
2022/04/16 07:13:50;;;;;;;9.95;6.82;;;10.20;90.70;;;;;;5024190;28;20049;-67
2022/04/16 07:16:16;;;;;;;8.30;5.70;;;10.70;89.20;;;;;;5031031;28;20037;-67
2022/04/16 07:18:42;;;;;;;7.35;5.22;;;11.00;87.30;;;;;;5018719;28;20049;-67
2022/04/16 07:21:08;;;;;;;8.57;5.22;;;10.90;86.80;;;;;;5020804;28;20030;-67
2022/04/16 07:23:35;;;;;;;12.85;10.07;;;10.90;86.60;;;;;;5033938;28;20056;-67
2022/04/16 07:26:01;;;;;;;9.25;5.18;;;11.10;86.60;;;;;;5018592;28;20418;-67
2022/04/16 07:28:28;;;;;;;7.32;5.45;;;11.40;85.40;;;;;;5029471;28;20087;-67
2022/04/16 07:30:53;;;;;;;6.78;4.53;;;11.00;85.10;;;;;;5021843;28;20021;-67
2022/04/16 07:33:22;;;;;;;7.55;5.30;;;11.00;84.30;;;;;;5030259;28;20705;-67
2022/04/16 07:35:48;;;;;;;29.88;7.97;;;10.80;84.70;;;;;;5020320;28;21262;-66
2022/04/16 07:38:14;;;;;;;21.77;14.93;;;10.80;86.30;;;;;;5022319;28;20026;-70
2022/04/16 07:40:40;;;;;;;131.85;20.35;;;10.80;87.80;;;;;;5033436;28;20038;-66
2022/04/16 07:43:06;;;;;;;81.07;23.80;;;11.00;86.50;;;;;;5027242;28;20115;-66
2022/04/16 07:45:34;;;;;;;237.10;35.78;;;11.00;85.80;;;;;;5026461;28;20038;-66
2022/04/16 07:48:00;;;;;;;33.75;12.45;;;11.10;85.70;;;;;;5024409;28;20064;-66
2022/04/16 07:50:26;;;;;;;18.95;7.28;;;11.30;85.60;;;;;;5022926;28;20025;-67
2022/04/16 07:52:52;;;;;;;8.00;5.15;;;11.30;84.60;;;;;;5030227;28;20014;-66
2022/04/16 07:55:17;;;;;;;12.10;6.65;;;11.30;84.70;;;;;;5031471;28;20398;-67
2022/04/16 07:57:43;;;;;;;12.95;8.43;;;11.40;84.30;;;;;;5020872;28;20034;-67
2022/04/16 08:00:14;;;;;;;8.95;5.68;;;11.60;84.00;;;;;;5028070;28;20033;-67
2022/04/16 08:02:39;;;;;;;8.27;5.47;;;11.80;84.20;;;;;;5027482;28;20128;-67
2022/04/16 08:05:07;;;;;;;9.77;6.10;;;12.20;82.40;;;;;;5033479;28;20097;-67
2022/04/16 08:07:33;;;;;;;10.55;6.43;;;12.40;80.90;;;;;;5033046;28;20417;-67
2022/04/16 08:09:59;;;;;;;8.10;5.50;;;12.30;82.40;;;;;;5057173;28;20311;-67
2022/04/16 08:12:25;;;;;;;10.75;6.30;;;12.20;82.00;;;;;;5046051;28;20030;-67
2022/04/16 08:14:52;;;;;;;8.48;6.00;;;11.90;82.90;;;;;;5026086;28;20050;-67
2022/04/16 08:17:18;;;;;;;8.63;6.28;;;11.60;83.40;;;;;;5047377;28;20025;-67
2022/04/16 08:19:44;;;;;;;9.13;6.25;;;11.30;84.10;;;;;;5032604;28;20192;-67
2022/04/16 08:22:17;;;;;;;12.98;6.70;;;10.90;85.90;;;;;;5028137;28;20085;-67
2022/04/16 08:24:53;;;;;;;9.20;6.30;;;10.80;86.50;;;;;;5017654;28;20041;-66
2022/04/16 08:27:22;;;;;;;11.30;6.90;;;10.40;87.40;;;;;;5030139;28;20029;-66
2022/04/16 08:29:48;;;;;;;25.70;7.68;;;10.40;87.70;;;;;;5021544;28;20323;-66
2022/04/16 08:32:14;;;;;;;20.45;7.25;;;10.60;87.90;;;;;;5032057;28;20109;-66
2022/04/16 08:34:40;;;;;;;20.80;7.03;;;10.50;87.30;;;;;;5015792;28;20367;-65
2022/04/16 08:37:06;;;;;;;39.85;9.48;;;10.40;87.70;;;;;;5023998;28;20407;-67
2022/04/16 08:39:35;;;;;;;34.05;8.55;;;10.20;88.30;;;;;;5028730;28;20022;-68
2022/04/16 08:42:01;;;;;;;11.13;7.03;;;10.20;88.10;;;;;;5025092;28;20172;-67
2022/04/16 08:44:27;;;;;;;9.90;6.75;;;10.00;87.70;;;;;;5027339;28;20086;-67
2022/04/16 08:46:54;;;;;;;11.45;7.50;;;9.90;88.70;;;;;;5028111;28;20073;-67
2022/04/16 08:49:21;;;;;;;12.07;7.50;;;9.90;88.90;;;;;;5023200;28;20033;-67
2022/04/16 08:51:48;;;;;;;11.65;7.50;;;10.00;88.70;;;;;;5026464;28;20295;-67
2022/04/16 08:54:14;;;;;;;11.13;6.57;;;9.90;88.50;;;;;;5025922;28;20057;-66
2022/04/16 08:56:40;;;;;;;11.82;7.20;;;9.80;89.50;;;;;;5023566;28;20130;-66
2022/04/16 08:59:06;;;;;;;10.63;6.82;;;9.90;88.80;;;;;;5029333;28;20045;-66
2022/04/16 09:01:34;;;;;;;11.45;7.35;;;9.90;89.00;;;;;;5028869;28;20091;-67
2022/04/16 09:04:00;;;;;;;13.98;7.40;;;9.90;88.00;;;;;;5022517;28;20034;-67
2022/04/16 09:06:26;;;;;;;10.32;6.43;;;9.80;88.70;;;;;;5025014;28;20036;-66
2022/04/16 09:08:51;;;;;;;8.52;5.43;;;9.70;88.40;;;;;;5023141;28;20075;-67
2022/04/16 09:11:24;;;;;;;10.95;7.45;;;9.60;89.40;;;;;;5020339;28;20418;-67
2022/04/16 09:13:49;;;;;;;13.07;6.55;;;9.70;88.20;;;;;;5017333;28;20037;-67
2022/04/16 09:16:16;;;;;;;10.23;6.85;;;9.70;88.50;;;;;;5028973;28;20025;-67
2022/04/16 09:18:52;;;;;;;12.65;6.65;;;9.80;88.00;;;;;;5027910;28;20026;-67
2022/04/16 09:21:25;;;;;;;9.13;6.00;;;10.00;88.70;;;;;;5035006;28;20025;-67
2022/04/16 09:23:57;;;;;;;9.75;5.85;;;10.20;87.80;;;;;;5028705;28;20483;-65
2022/04/16 09:26:32;;;;;;;8.43;5.72;;;10.60;88.10;;;;;;5022558;28;20333;-65
2022/04/16 09:29:25;;;;;;;9.25;6.18;;;10.70;85.30;;;;;;5022502;28;20030;-65
2022/04/16 09:31:51;;;;;;;10.52;6.70;;;10.80;85.60;;;;;;5030291;28;20048;-67
2022/04/16 09:34:19;;;;;;;10.77;6.00;;;10.80;85.60;;;;;;5035638;28;20041;-65
2022/04/16 09:36:46;;;;;;;11.43;6.75;;;10.80;84.60;;;;;;5025310;28;20320;-66
2022/04/16 09:39:13;;;;;;;8.27;5.88;;;10.90;84.10;;;;;;5024643;28;20030;-67
2022/04/16 09:41:41;;;;;;;8.85;5.60;;;11.30;84.60;;;;;;5019484;28;20052;-67
2022/04/16 09:44:17;;;;;;;9.02;5.93;;;11.80;83.00;;;;;;5019350;28;20030;-66
2022/04/16 09:46:49;;;;;;;8.15;5.63;;;12.00;81.60;;;;;;5019037;28;20041;-66
2022/04/16 09:49:16;;;;;;;9.88;4.65;;;12.30;80.00;;;;;;5035389;28;20116;-67
2022/04/16 09:51:44;;;;;;;9.80;6.03;;;12.50;80.00;;;;;;5026897;28;20025;-67
2022/04/16 09:54:13;;;;;;;9.65;6.10;;;12.40;78.00;;;;;;5033371;28;20033;-67
2022/04/16 09:56:41;;;;;;;8.38;5.43;;;12.20;79.30;;;;;;5028927;28;20029;-67
2022/04/16 09:59:09;;;;;;;7.78;5.38;;;12.20;79.30;;;;;;5032268;28;20029;-66
2022/04/16 10:01:41;;;;;;;7.97;5.53;;;12.20;78.90;;;;;;5020446;28;20118;-67
2022/04/16 10:04:08;;;;;;;7.82;5.35;;;11.70;78.60;;;;;;5018120;28;20033;-65
2022/04/16 10:06:34;;;;;;;8.15;5.85;;;11.80;78.70;;;;;;5020423;28;20100;-66
2022/04/16 10:09:13;;;;;;;9.18;5.57;;;12.00;80.30;;;;;;5034631;28;20033;-66
2022/04/16 10:14:52;;;;;;;8.60;5.45;;;12.10;78.70;;;;;;5029183;28;20048;-66
2022/04/16 10:17:39;;;;;;;8.60;4.85;;;12.70;78.20;;;;;;5021952;28;20030;-67
2022/04/16 10:20:25;;;;;;;8.90;5.60;;;13.20;75.90;;;;;;5026329;28;20026;-66
2022/04/16 10:22:56;;;;;;;8.90;5.32;;;13.00;77.00;;;;;;5024973;28;20025;-66
2022/04/16 10:25:35;;;;;;;8.10;5.00;;;12.80;75.00;;;;;;5017854;28;20054;-67
2022/04/16 10:28:09;;;;;;;7.47;4.97;;;12.70;76.80;;;;;;5025260;28;20042;-66
2022/04/16 10:30:51;;;;;;;8.98;5.28;;;12.50;76.40;;;;;;5028639;28;20022;-65
2022/04/16 10:33:20;;;;;;;;;;;12.20;76.60;;;;;;5027148;28;20087;-67
2022/04/16 10:36:10;;;;;;;8.00;5.20;;;12.00;77.80;;;;;;5022121;28;19931;-68
2022/04/16 10:38:40;;;;;;;9.35;5.53;;;11.70;77.50;;;;;;5030500;28;20102;-67
2022/04/16 10:41:20;;;;;;;7.65;5.43;;;11.80;78.70;;;;;;5031292;28;20025;-66
2022/04/16 10:44:12;;;;;;;8.57;5.47;;;11.70;79.90;;;;;;5033741;28;20040;-66
2022/04/16 10:46:50;;;;;;;8.27;5.47;;;11.80;79.20;;;;;;5027710;28;20136;-66
2022/04/16 10:49:22;;;;;;;18.55;9.98;;;11.70;78.70;;;;;;5034738;28;20056;-66
2022/04/16 10:51:50;;;;;;;9.18;6.05;;;11.50;79.20;;;;;;5035899;28;20390;-66
2022/04/16 10:54:32;;;;;;;9.85;6.15;;;11.20;81.00;;;;;;5040699;28;20072;-65
2022/04/16 10:56:59;;;;;;;9.65;6.38;;;11.30;79.90;;;;;;5035329;28;20025;-66
2022/04/16 10:59:46;;;;;;;9.93;5.85;;;11.40;80.00;;;;;;5022309;28;20052;-67
2022/04/16 11:02:19;;;;;;;10.02;7.07;;;11.50;79.10;;;;;;5029350;28;20037;-67
2022/04/16 11:05:00;;;;;;;9.00;5.45;;;11.30;78.60;;;;;;5033931;28;20033;-65
2022/04/16 11:07:31;;;;;;;8.63;5.57;;;11.00;80.20;;;;;;5039529;28;20195;-65
2022/04/16 11:09:57;;;;;;;8.27;5.57;;;10.80;81.90;;;;;;5026475;28;20030;-67
2022/04/16 11:12:26;;;;;;;11.77;6.45;;;10.80;81.80;;;;;;5020043;28;20104;-66
2022/04/16 11:14:53;;;;;;;11.15;5.80;;;10.90;81.70;;;;;;5016860;28;20083;-65
2022/04/16 11:17:20;;;;;;;9.20;6.13;;;10.90;81.30;;;;;;5018958;28;20058;-66
2022/04/16 11:20:10;;;;;;;9.38;5.50;;;11.00;82.10;;;;;;5031994;28;20049;-65
2022/04/16 11:22:38;;;;;;;12.73;6.15;;;11.10;80.80;;;;;;5033985;28;20036;-65
2022/04/16 11:25:10;;;;;;;11.23;6.60;;;11.50;81.20;;;;;;5028410;28;20044;-65
2022/04/16 11:36:05;;;;;;;9.13;5.68;;;14.20;72.70;;;;;;5028472;28;20033;-67
2022/04/16 11:38:35;;;;;;;8.77;6.18;;;13.90;73.30;;;;;;5026346;28;20064;-68
2022/04/16 11:41:10;;;;;;;9.63;6.22;;;13.60;73.30;;;;;;5025434;28;20118;-67
2022/04/16 11:43:45;;;;;;;7.38;5.55;;;12.90;74.10;;;;;;5023625;28;20018;-68
2022/04/16 11:46:13;;;;;;;8.75;5.93;;;12.60;76.90;;;;;;5008407;28;20052;-66
2022/04/16 11:48:46;;;;;;;9.10;5.70;;;12.20;77.20;;;;;;5027414;28;20113;-66
2022/04/16 11:51:21;;;;;;;9.10;6.53;;;12.40;78.30;;;;;;5032966;28;20405;-66
2022/04/16 11:53:54;;;;;;;9.48;6.38;;;12.80;77.20;;;;;;5034816;28;20029;-66
2022/04/16 11:56:26;;;;;;;8.82;5.68;;;12.80;76.10;;;;;;5022706;28;21244;-67
2022/04/16 11:58:52;;;;;;;8.32;5.72;;;13.10;76.20;;;;;;5032203;28;20040;-67
2022/04/16 12:01:23;;;;;;;8.98;6.22;;;13.30;75.90;;;;;;5028872;28;20032;-67
2022/04/16 12:03:52;;;;;;;9.57;6.07;;;13.30;74.80;;;;;;5026395;28;20022;-67
2022/04/16 12:06:18;;;;;;;9.82;6.55;;;12.90;75.60;;;;;;5029784;28;20212;-67
2022/04/16 12:08:45;;;;;;;8.57;6.38;;;12.90;75.10;;;;;;5027404;28;20948;-67
2022/04/16 12:11:13;;;;;;;8.90;5.60;;;12.90;75.10;;;;;;5024723;28;20059;-66
2022/04/16 12:13:41;;;;;;;8.90;5.68;;;13.10;76.00;;;;;;5025414;28;20113;-66
2022/04/16 12:16:08;;;;;;;8.25;5.90;;;13.40;75.70;;;;;;5022301;28;20053;-67
2022/04/16 12:18:44;;;;;;;8.73;6.20;;;13.60;74.70;;;;;;5026473;28;20061;-66
2022/04/16 12:21:13;;;;;;;8.32;5.93;;;13.50;74.10;;;;;;5018410;28;20447;-67
2022/04/16 12:23:40;;;;;;;8.52;5.65;;;13.50;74.70;;;;;;5021023;28;20033;-66
2022/04/16 12:26:09;;;;;;;7.72;5.70;;;13.20;75.10;;;;;;5022823;28;20322;-66
2022/04/16 12:28:46;;;;;;;9.05;5.57;;;13.40;74.80;;;;;;5026745;28;20326;-67
2022/04/16 12:31:24;;;;;;;10.00;6.35;;;13.40;74.70;;;;;;5032427;28;20022;-67
2022/04/16 12:33:49;;;;;;;8.25;5.43;;;13.40;73.70;;;;;;5023618;28;20021;-66
2022/04/16 12:36:15;;;;;;;7.70;5.20;;;13.40;74.80;;;;;;5023783;28;20029;-67
2022/04/16 12:38:41;;;;;;;8.38;5.78;;;13.40;75.50;;;;;;5028096;28;20485;-66
2022/04/16 12:41:09;;;;;;;9.27;5.88;;;13.80;72.70;;;;;;5027741;28;20029;-67
2022/04/16 12:43:35;;;;;;;7.78;5.38;;;14.20;72.70;;;;;;5028322;28;20084;-67
2022/04/16 12:46:01;;;;;;;7.30;4.72;;;14.30;72.00;;;;;;5026619;28;20484;-67
2022/04/16 12:48:27;;;;;;;7.70;4.97;;;14.50;71.90;;;;;;5029639;28;20029;-66
2022/04/16 12:50:53;;;;;;;7.53;4.80;;;15.00;68.80;;;;;;5021472;28;20049;-67
2022/04/16 12:53:20;;;;;;;8.40;5.70;;;14.80;68.90;;;;;;5029569;28;20029;-66
2022/04/16 12:55:45;;;;;;;7.40;5.13;;;14.30;70.40;;;;;;5047756;28;20033;-67
2022/04/16 12:58:11;;;;;;;7.88;4.97;;;14.40;70.90;;;;;;5017990;28;20030;-67
2022/04/16 13:00:37;;;;;;;7.25;4.70;;;15.30;71.70;;;;;;5019287;28;20418;-67
2022/04/16 13:03:04;;;;;;;8.27;5.07;;;15.80;68.90;;;;;;5030743;28;20045;-67
2022/04/16 13:05:30;;;;;;;7.30;5.22;;;15.50;68.00;;;;;;5020627;28;20064;-66
2022/04/16 13:07:59;;;;;;;7.32;4.95;;;15.00;70.20;;;;;;5036160;28;20029;-67
2022/04/16 13:10:27;;;;;;;8.48;4.80;;;15.20;69.00;;;;;;5034294;28;20128;-67
2022/04/16 13:12:54;;;;;;;6.40;4.50;;;15.60;69.90;;;;;;5016360;28;20097;-67
2022/04/16 13:15:20;;;;;;;7.72;5.35;;;16.40;68.40;;;;;;5017239;28;20043;-67